Time;durP1;ratioP1;P1;durP2;ratioP2;P2;SDS_P1;SDS_P2;PMS_P1;PMS_P2;Temp;Humidity;BMP_temperature;BMP_pressure;BME280_temperature;BME280_humidity;BME280_pressure;Samples;Min_cycle;Max_cycle;Signal;HPM_P1;HPM_P2
2020/12/14 00:02:25;;;;;;;23.12;15.90;;;;;;;1.56;82.79;96426.47;1790601;79;21130;-86
2020/12/14 00:04:52;;;;;;;27.35;16.67;;;;;;;1.52;82.81;96423.82;1788463;79;21095;-86
2020/12/14 00:07:19;;;;;;;33.83;20.20;;;;;;;1.49;82.93;96430.48;1788704;79;21130;-86
2020/12/14 00:09:46;;;;;;;27.50;18.32;;;;;;;1.46;83.06;96428.14;1786753;79;21415;-86
2020/12/14 00:12:12;;;;;;;25.00;17.25;;;;;;;1.46;83.13;96436.66;1811679;79;21239;-86
2020/12/14 00:14:38;;;;;;;23.22;15.40;;;;;;;1.48;83.07;96438.62;1803614;78;21137;-86
2020/12/14 00:17:04;;;;;;;16.17;9.88;;;;;;;1.47;82.88;96445.16;1792169;78;21102;-86
2020/12/14 00:19:31;;;;;;;21.80;14.58;;;;;;;1.39;82.82;96448.78;1806887;79;21324;-87
2020/12/14 00:21:57;;;;;;;21.27;14.43;;;;;;;1.36;83.16;96451.13;1790637;78;21435;-86
2020/12/14 00:24:23;;;;;;;25.40;15.70;;;;;;;1.38;83.35;96442.85;1805090;79;21479;-85
2020/12/14 00:26:50;;;;;;;21.35;13.83;;;;;;;1.39;83.36;96450.06;1797569;79;21149;-86
2020/12/14 00:29:16;;;;;;;19.17;12.78;;;;;;;1.42;83.33;96445.97;1787309;79;21115;-86
2020/12/14 00:31:42;;;;;;;15.05;10.85;;;;;;;1.46;83.25;96445.62;1802539;79;21109;-87
2020/12/14 00:34:09;;;;;;;14.07;9.80;;;;;;;1.49;83.21;96445.84;1801778;79;21095;-86
2020/12/14 00:36:35;;;;;;;15.38;9.38;;;;;;;1.49;83.22;96444.09;1804966;79;21125;-86
2020/12/14 00:39:01;;;;;;;11.18;8.75;;;;;;;1.49;83.23;96445.38;1805453;78;21106;-86
2020/12/14 00:41:27;;;;;;;10.32;7.30;;;;;;;1.48;83.38;96444.22;1806114;79;21192;-86
2020/12/14 00:43:53;;;;;;;8.30;6.28;;;;;;;1.48;83.43;96451.43;1817939;79;21216;-86
2020/12/14 00:46:19;;;;;;;6.53;4.62;;;;;;;1.49;83.47;96452.24;1805830;78;21114;-86
2020/12/14 00:48:45;;;;;;;5.42;4.37;;;;;;;1.54;83.38;96455.23;1792395;78;21102;-85
2020/12/14 00:51:11;;;;;;;4.62;3.55;;;;;;;1.56;83.30;96462.32;1796042;78;21107;-87
2020/12/14 00:53:37;;;;;;;4.42;3.95;;;;;;;1.58;83.32;96456.60;1795515;79;21116;-86
2020/12/14 00:56:03;;;;;;;5.85;4.53;;;;;;;1.61;83.42;96459.38;1806035;79;21127;-86
2020/12/14 00:58:30;;;;;;;7.10;4.90;;;;;;;1.59;83.36;96456.95;1787456;79;21232;-87
2020/12/14 01:00:56;;;;;;;5.75;4.53;;;;;;;1.55;83.37;96453.02;1787136;79;21114;-87
2020/12/14 01:03:23;;;;;;;5.35;4.12;;;;;;;1.53;83.37;96456.17;1791230;78;21123;-86
2020/12/14 01:05:52;;;;;;;4.75;3.87;;;;;;;1.53;83.32;96460.02;1796158;78;21379;-86
2020/12/14 01:08:21;;;;;;;5.70;4.42;;;;;;;1.57;83.32;96463.94;1796463;78;21942;-86
2020/12/14 01:10:50;;;;;;;5.12;4.10;;;;;;;1.63;83.38;96463.47;1802789;78;21111;-87
2020/12/14 01:13:16;;;;;;;5.17;4.67;;;;;;;1.67;83.40;96463.55;1800289;78;21272;-86
2020/12/14 01:15:42;;;;;;;5.47;4.47;;;;;;;1.68;83.42;96466.45;1803026;78;22266;-86
2020/12/14 01:18:09;;;;;;;5.35;4.45;;;;;;;1.68;83.44;96472.86;1796710;78;21216;-86
2020/12/14 01:20:40;;;;;;;6.00;4.50;;;;;;;1.65;83.31;96471.02;1800469;78;21116;-87
2020/12/14 01:23:06;;;;;;;5.85;4.40;;;;;;;1.67;83.40;96473.80;1804511;78;21109;-85
2020/12/14 01:25:32;;;;;;;5.42;4.67;;;;;;;1.72;83.32;96477.26;1803750;78;21124;-86
2020/12/14 01:27:58;;;;;;;6.12;4.92;;;;;;;1.76;83.24;96476.06;1794672;78;21077;-86
2020/12/14 01:30:24;;;;;;;10.03;6.70;;;;;;;1.72;83.10;96478.07;1800429;78;21122;-86
2020/12/14 01:32:51;;;;;;;9.65;8.50;;;;;;;1.65;82.91;96485.11;1801204;78;22300;-86
2020/12/14 01:35:17;;;;;;;12.15;7.97;;;;;;;1.53;82.80;96491.22;1802867;78;21387;-86
2020/12/14 01:37:44;;;;;;;12.98;9.95;;;;;;;1.47;83.12;96486.13;1802541;78;21340;-86
2020/12/14 01:40:10;;;;;;;18.12;11.60;;;;;;;1.49;83.24;96486.34;1795763;78;21101;-86
2020/12/14 01:42:40;;;;;;;20.80;13.90;;;;;;;1.55;83.23;96488.05;1793450;78;21593;-86
2020/12/14 01:45:07;;;;;;;24.05;15.95;;;;;;;1.58;83.05;96487.34;1799106;78;21098;-86
2020/12/14 01:47:38;;;;;;;21.80;14.73;;;;;;;1.59;82.90;96485.59;1798584;78;21078;-86
2020/12/14 01:50:05;;;;;;;20.25;13.38;;;;;;;1.55;82.90;96487.59;1801767;78;21335;-86
2020/12/14 01:52:31;;;;;;;17.48;12.28;;;;;;;1.55;82.91;96489.34;1800185;78;21221;-87
2020/12/14 01:55:00;;;;;;;13.40;10.10;;;;;;;1.53;82.98;96489.47;1798176;78;21351;-86
2020/12/14 01:57:27;;;;;;;10.10;8.13;;;;;;;1.45;82.48;96491.34;1765068;78;21111;-86
2020/12/14 01:59:55;;;;;;;14.03;9.35;;;;;;;1.38;82.38;96500.46;1794157;78;21242;-85
2020/12/14 02:02:22;;;;;;;12.30;8.53;;;;;;;1.42;82.70;96499.73;1800431;78;21386;-86
2020/12/14 02:04:48;;;;;;;10.65;7.35;;;;;;;1.46;82.72;96499.83;1806010;78;21248;-86
2020/12/14 02:07:14;;;;;;;12.15;7.60;;;;;;;1.49;82.69;96505.55;1814643;78;21350;-86
2020/12/14 02:09:40;;;;;;;12.33;9.38;;;;;;;1.51;82.76;96513.11;1794151;78;21125;-86
2020/12/14 02:12:06;;;;;;;11.80;8.03;;;;;;;1.51;82.78;96514.39;1797056;78;21126;-86
2020/12/14 02:14:36;;;;;;;9.38;6.60;;;;;;;1.51;82.74;96507.98;1802128;78;21730;-87
2020/12/14 02:17:01;;;;;;;11.68;7.80;;;;;;;1.52;82.68;96503.20;1760292;80;21074;-86
2020/12/14 02:19:27;;;;;;;9.85;7.28;;;;;;;1.56;82.67;96503.30;1720364;80;21134;-86
2020/12/14 02:21:53;;;;;;;8.55;6.67;;;;;;;1.58;82.79;96499.33;1764595;80;21387;-86
2020/12/14 02:24:21;;;;;;;9.18;6.53;;;;;;;1.56;82.55;96493.52;1804180;78;21525;-86
2020/12/14 02:26:50;;;;;;;7.97;5.67;;;;;;;1.57;82.60;96500.27;1797808;78;21164;-87
2020/12/14 02:29:20;;;;;;;8.85;5.97;;;;;;;1.56;82.64;96502.48;1799006;78;21113;-86
2020/12/14 02:31:46;;;;;;;8.55;5.85;;;;;;;1.57;82.59;96504.92;1803488;78;21105;-86
2020/12/14 02:34:12;;;;;;;7.75;5.90;;;;;;;1.61;82.64;96504.20;1798012;78;21577;-86
2020/12/14 02:36:39;;;;;;;7.58;5.37;;;;;;;1.63;82.44;96508.29;1800511;78;21347;-86
2020/12/14 02:39:06;;;;;;;7.08;6.05;;;;;;;1.63;82.54;96509.57;1773651;78;21240;-86
2020/12/14 02:41:32;;;;;;;11.03;6.83;;;;;;;1.61;82.38;96510.13;1808553;78;21127;-86
2020/12/14 02:43:58;;;;;;;8.65;6.90;;;;;;;1.50;82.29;96504.61;1806461;78;21141;-86
2020/12/14 02:46:24;;;;;;;10.55;6.70;;;;;;;1.51;82.38;96502.86;1763380;80;21239;-86
2020/12/14 02:48:50;;;;;;;13.38;7.75;;;;;;;1.51;82.42;96501.58;1800332;78;21479;-86
2020/12/14 02:51:19;;;;;;;10.40;6.30;;;;;;;1.56;82.49;96508.89;1796192;78;21096;-85
2020/12/14 02:53:47;;;;;;;10.03;7.70;;;;;;;1.57;82.32;96510.05;1795182;78;21117;-86
2020/12/14 02:56:15;;;;;;;8.98;6.80;;;;;;;1.54;82.21;96514.13;1798703;78;21450;-86
2020/12/14 02:58:46;;;;;;;10.55;8.18;;;;;;;1.56;82.39;96516.57;1759536;80;21122;-86
2020/12/14 03:01:12;;;;;;;12.30;8.45;;;;;;;1.58;82.43;96524.47;1759717;80;21249;-86
2020/12/14 03:03:38;;;;;;;12.95;8.85;;;;;;;1.58;82.35;96526.22;1800314;78;21441;-86
2020/12/14 03:06:04;;;;;;;10.60;8.05;;;;;;;1.55;82.38;96531.13;1802141;78;21094;-86
2020/12/14 03:08:30;;;;;;;11.28;7.60;;;;;;;1.55;82.35;96533.69;1796571;78;21142;-86
2020/12/14 03:10:56;;;;;;;12.75;8.25;;;;;;;1.57;82.28;96536.94;1805611;78;21339;-86
2020/12/14 03:13:22;;;;;;;13.60;9.50;;;;;;;1.55;82.20;96530.31;1800763;78;21237;-86
2020/12/14 03:15:48;;;;;;;12.53;8.90;;;;;;;1.51;82.12;96532.31;1801016;78;21098;-86
2020/12/14 03:18:14;;;;;;;13.03;8.43;;;;;;;1.49;82.32;96532.91;1799045;78;21136;-86
2020/12/14 03:20:40;;;;;;;13.78;8.58;;;;;;;1.49;82.40;96535.00;1795386;78;21114;-86
2020/12/14 03:23:06;;;;;;;12.75;8.83;;;;;;;1.48;82.39;96528.72;1798222;78;21145;-86
2020/12/14 03:25:33;;;;;;;11.75;8.28;;;;;;;1.48;82.37;96523.13;1796846;78;21462;-86
2020/12/14 03:27:59;;;;;;;13.18;8.75;;;;;;;1.54;82.45;96524.38;1770817;80;21542;-86
2020/12/14 03:30:27;;;;;;;12.65;8.65;;;;;;;1.58;82.39;96522.38;1801921;78;21120;-87
2020/12/14 03:32:53;;;;;;;14.25;10.48;;;;;;;1.60;82.40;96526.91;1802976;78;21121;-86
2020/12/14 03:35:19;;;;;;;16.73;10.08;;;;;;;1.57;82.15;96532.28;1796403;78;21258;-86
2020/12/14 03:37:45;;;;;;;12.82;9.20;;;;;;;1.55;82.30;96529.03;1802493;78;21299;-86
2020/12/14 03:40:11;;;;;;;11.73;8.68;;;;;;;1.53;82.27;96514.27;1804328;78;21078;-86
2020/12/14 03:42:37;;;;;;;13.68;9.00;;;;;;;1.55;82.21;96523.91;1807156;78;21118;-87
2020/12/14 03:45:03;;;;;;;12.68;9.30;;;;;;;1.58;82.18;96528.78;1796573;78;21476;-86
2020/12/14 03:47:30;;;;;;;13.43;9.83;;;;;;;1.63;82.20;96537.74;1802630;78;21224;-86
2020/12/14 03:49:57;;;;;;;14.85;9.40;;;;;;;1.64;82.21;96532.16;1798258;78;21139;-86
2020/12/14 03:52:25;;;;;;;12.65;9.53;;;;;;;1.61;82.08;96530.63;1802002;78;21197;-86
2020/12/14 03:54:51;;;;;;;12.05;9.08;;;;;;;1.56;82.17;96531.47;1762655;80;21153;-86
2020/12/14 03:57:17;;;;;;;12.03;8.35;;;;;;;1.52;82.18;96533.94;1779477;79;21058;-86
2020/12/14 03:59:43;;;;;;;13.38;9.70;;;;;;;1.52;82.09;96544.65;1765316;79;21101;-87
2020/12/14 04:02:09;;;;;;;11.95;8.10;;;;;;;1.52;82.12;96542.90;1745425;81;22079;-86
2020/12/14 04:04:35;;;;;;;11.68;9.30;;;;;;;1.56;82.16;96540.90;1731880;81;21126;-86
2020/12/14 04:07:01;;;;;;;11.65;7.47;;;;;;;1.59;82.27;96544.49;1735623;81;21454;-86
2020/12/14 04:09:27;;;;;;;14.00;9.40;;;;;;;1.55;82.08;96550.33;1732712;81;21451;-86
2020/12/14 04:11:53;;;;;;;15.60;8.48;;;;;;;1.47;82.00;96547.11;1752856;81;21760;-86
2020/12/14 04:14:22;;;;;;;11.95;8.63;;;;;;;1.45;82.11;96544.30;1743019;81;21990;-86
2020/12/14 04:16:52;;;;;;;10.32;8.20;;;;;;;1.41;82.06;96541.64;1743177;81;21133;-86
2020/12/14 04:19:22;;;;;;;11.95;8.53;;;;;;;1.47;82.17;96543.74;1772374;80;21486;-86
2020/12/14 04:21:46;;;;;;;11.50;8.15;;;;;;;1.50;82.19;96537.09;1797807;78;21109;-86
2020/12/14 04:24:12;;;;;;;10.82;8.48;;;;;;;1.50;82.26;96539.19;1795579;78;21129;-86
2020/12/14 04:26:38;;;;;;;13.70;9.18;;;;;;;1.51;82.28;96545.12;1798469;78;21122;-86
2020/12/14 04:29:04;;;;;;;11.93;8.65;;;;;;;1.50;82.40;96544.30;1795164;78;21085;-86
2020/12/14 04:31:30;;;;;;;14.07;8.70;;;;;;;1.48;82.53;96553.05;1802160;78;21113;-86
2020/12/14 04:33:57;;;;;;;13.30;8.88;;;;;;;1.48;82.40;96561.55;1798435;78;21094;-86
2020/12/14 04:36:24;;;;;;;10.05;8.13;;;;;;;1.53;82.44;96565.01;1791276;78;21148;-86
2020/12/14 04:38:50;;;;;;;13.40;9.13;;;;;;;1.60;82.36;96568.70;1804410;78;21109;-86
2020/12/14 04:41:17;;;;;;;11.48;9.35;;;;;;;1.64;82.34;96572.66;1792481;78;21402;-86
2020/12/14 04:43:43;;;;;;;11.25;7.65;;;;;;;1.63;82.11;96582.56;1783101;78;21134;-86
2020/12/14 04:46:09;;;;;;;9.80;7.78;;;;;;;1.63;82.10;96597.94;1808429;78;21105;-86
2020/12/14 04:48:35;;;;;;;15.83;10.13;;;;;;;1.63;82.24;96609.93;1801104;78;21372;-87
2020/12/14 04:51:01;;;;;;;12.90;8.10;;;;;;;1.62;82.28;96593.72;1799090;78;21118;-87
2020/12/14 04:53:27;;;;;;;12.10;9.13;;;;;;;1.64;82.14;96593.63;1800576;78;21109;-86
2020/12/14 04:55:53;;;;;;;10.05;7.78;;;;;;;1.61;82.13;96594.66;1802875;78;21128;-86
2020/12/14 04:58:19;;;;;;;12.30;8.60;;;;;;;1.64;82.11;96591.88;1799199;78;21408;-85
2020/12/14 05:00:45;;;;;;;12.95;9.08;;;;;;;1.65;82.26;96587.09;1795382;78;21201;-86
2020/12/14 05:03:11;;;;;;;12.50;8.20;;;;;;;1.66;82.28;96582.79;1798504;78;21117;-86
2020/12/14 05:05:37;;;;;;;12.78;9.28;;;;;;;1.67;82.12;96588.25;1791251;78;21359;-85
2020/12/14 05:08:04;;;;;;;12.35;8.40;;;;;;;1.63;82.08;96600.97;1805620;78;21320;-86
2020/12/14 05:10:32;;;;;;;13.00;8.33;;;;;;;1.64;82.11;96597.47;1800687;78;21106;-85
2020/12/14 05:12:57;;;;;;;11.53;8.73;;;;;;;1.69;82.17;96610.25;1796755;78;21109;-86
2020/12/14 05:15:28;;;;;;;13.00;9.70;;;;;;;1.69;82.00;96601.75;1803180;78;21456;-86
2020/12/14 05:18:12;;;;;;;13.58;8.60;;;;;;;1.64;82.05;96600.84;1797406;78;21085;-86
2020/12/14 05:20:40;;;;;;;12.00;9.00;;;;;;;1.62;82.16;96609.09;1798810;78;21612;-87
2020/12/14 05:23:10;;;;;;;12.70;8.73;;;;;;;1.62;82.28;96610.37;1773705;78;21110;-87
2020/12/14 05:25:36;;;;;;;13.93;7.92;;;;;;;1.60;82.19;96601.18;1798460;78;21107;-88
2020/12/14 05:28:05;;;;;;;11.75;7.55;;;;;;;1.62;82.20;96603.96;1805821;78;21096;-87
2020/12/14 05:30:39;;;;;;;10.75;7.92;;;;;;;1.66;82.16;96607.13;1797313;78;21453;-88
2020/12/14 05:33:07;;;;;;;11.30;7.60;;;;;;;1.68;82.12;96617.59;1768445;80;21142;-87
2020/12/14 05:35:35;;;;;;;15.15;10.32;;;;;;;1.69;82.27;96639.70;1801740;78;21108;-87
2020/12/14 05:38:16;;;;;;;13.68;9.78;;;;;;;1.73;82.33;96641.55;1796836;78;21074;-86
2020/12/14 05:40:48;;;;;;;15.63;11.33;;;;;;;1.63;82.20;96645.32;1801629;78;21227;-87
2020/12/14 05:43:18;;;;;;;16.97;12.82;;;;;;;1.66;82.32;96657.88;1803870;78;21132;-87
2020/12/14 05:45:44;;;;;;;15.63;10.75;;;;;;;1.65;82.12;96660.56;1802112;78;21100;-88
2020/12/14 05:48:32;;;;;;;10.80;8.53;;;;;;;1.65;82.12;96651.13;1796879;78;21072;-87
2020/12/14 05:51:05;;;;;;;13.98;9.55;;;;;;;1.64;82.13;96658.48;1797832;78;21228;-87
2020/12/14 05:53:40;;;;;;;9.35;7.40;;;;;;;1.60;82.17;96658.34;1764609;80;21122;-87
2020/12/14 05:56:08;;;;;;;15.38;10.30;;;;;;;1.54;82.30;96661.39;1799967;78;21319;-87
2020/12/14 05:58:39;;;;;;;14.05;10.48;;;;;;;1.46;82.45;96665.84;1802435;78;21256;-87
2020/12/14 06:01:07;;;;;;;13.38;10.50;;;;;;;1.46;82.60;96665.00;1798826;78;21122;-87
2020/12/14 06:03:34;;;;;;;7.95;6.17;;;;;;;1.48;82.72;96662.69;1804888;78;21235;-87
2020/12/14 06:06:08;;;;;;;5.70;5.20;;;;;;;1.52;82.62;96663.27;1795878;78;21091;-87
2020/12/14 06:08:49;;;;;;;4.28;3.45;;;;;;;1.50;82.63;96658.73;1797648;78;21102;-87
2020/12/14 06:11:16;;;;;;;3.60;3.30;;;;;;;1.49;82.72;96660.48;1800718;78;21433;-87
2020/12/14 06:13:54;;;;;;;3.45;3.15;;;;;;;1.50;82.80;96664.66;1799364;78;21110;-87
2020/12/14 06:16:26;;;;;;;3.85;3.35;;;;;;;1.50;82.88;96659.55;1793745;79;21349;-87
2020/12/14 06:18:52;;;;;;;3.85;3.55;;;;;;;1.47;82.95;96653.38;1789984;79;21123;-87
2020/12/14 06:21:25;;;;;;;3.10;2.80;;;;;;;1.47;82.97;96658.97;1809483;78;21223;-87
2020/12/14 06:23:51;;;;;;;3.62;2.77;;;;;;;1.48;82.96;96666.53;1800095;78;21102;-87
2020/12/14 06:26:22;;;;;;;3.92;3.52;;;;;;;1.51;83.03;96666.75;1819634;79;21078;-87
2020/12/14 06:28:53;;;;;;;3.67;3.37;;;;;;;1.52;83.05;96670.95;1805144;79;21119;-87
2020/12/14 06:31:37;;;;;;;5.55;3.70;;;;;;;1.53;83.15;96673.85;1793696;79;21327;-86
2020/12/14 06:34:07;;;;;;;4.53;3.67;;;;;;;1.54;83.17;96669.08;1801678;79;21240;-86
2020/12/14 06:36:40;;;;;;;3.98;3.60;;;;;;;1.49;83.27;96663.50;1771790;80;21086;-87
2020/12/14 06:39:34;;;;;;;3.98;3.40;;;;;;;1.55;83.26;96667.33;1796677;78;21121;-87
2020/12/14 06:42:15;;;;;;;3.87;3.50;;;;;;;1.57;83.15;96671.39;1806011;78;21106;-86
2020/12/14 06:44:50;;;;;;;2.98;2.75;;;;;;;1.62;83.18;96677.43;1807330;79;21070;-87
2020/12/14 06:47:18;;;;;;;3.62;3.25;;;;;;;1.66;83.24;96669.87;1782411;79;21162;-85
2020/12/14 06:49:46;;;;;;;3.42;3.12;;;;;;;1.66;83.25;96664.29;1809128;79;21117;-85
2020/12/14 06:52:12;;;;;;;3.90;3.50;;;;;;;1.65;83.17;96655.45;1795592;78;21102;-85
2020/12/14 06:54:44;;;;;;;5.22;4.17;;;;;;;1.62;83.04;96661.59;1806553;78;21115;-85
2020/12/14 06:57:12;;;;;;;4.37;3.60;;;;;;;1.62;82.95;96666.72;1814265;78;21121;-87
2020/12/14 06:59:38;;;;;;;4.40;3.90;;;;;;;1.65;82.93;96672.09;1809538;79;21124;-87
2020/12/14 07:02:08;;;;;;;4.47;3.67;;;;;;;1.64;82.72;96689.21;1793100;79;21083;-88
2020/12/14 07:04:37;;;;;;;3.58;3.27;;;;;;;1.68;82.87;96687.22;1809288;79;21209;-86
2020/12/14 07:07:15;;;;;;;3.45;3.10;;;;;;;1.73;83.00;96695.35;1816050;79;21141;-86
2020/12/14 07:09:41;;;;;;;4.15;3.75;;;;;;;1.73;82.87;96696.16;1795803;79;21115;-85
2020/12/14 07:12:18;;;;;;;4.20;3.60;;;;;;;1.75;83.07;96696.05;1807037;79;21511;-86
2020/12/14 07:14:50;;;;;;;4.17;3.35;;;;;;;1.77;83.01;96691.61;1816660;78;21102;-86
2020/12/14 07:17:24;;;;;;;3.50;3.20;;;;;;;1.77;82.63;96693.70;1807526;78;21353;-86
2020/12/14 07:19:52;;;;;;;4.50;3.98;;;;;;;1.81;82.81;96691.73;1806774;78;21216;-87
2020/12/14 07:22:24;;;;;;;3.67;3.37;;;;;;;1.85;82.54;96694.41;1794799;78;21126;-86
2020/12/14 07:25:04;;;;;;;3.80;3.50;;;;;;;1.80;82.14;96690.11;1811231;78;21094;-85
2020/12/14 07:27:32;;;;;;;4.83;4.42;;;;;;;1.76;82.22;96698.48;1798196;79;21118;-86
2020/12/14 07:30:09;;;;;;;4.53;4.00;;;;;;;1.75;82.10;96696.86;1804561;78;21448;-85
2020/12/14 07:32:35;;;;;;;5.08;4.12;;;;;;;1.76;82.31;96696.39;1807159;79;21110;-86
2020/12/14 07:35:01;;;;;;;4.58;3.98;;;;;;;1.78;82.23;96700.45;1797391;79;21126;-84
2020/12/14 07:37:27;;;;;;;4.62;3.62;;;;;;;1.81;82.24;96696.86;1794561;79;21342;-86
2020/12/14 07:39:53;;;;;;;8.25;5.03;;;;;;;1.88;82.39;96699.28;1796962;78;21248;-86
2020/12/14 07:42:25;;;;;;;12.53;7.85;;;;;;;1.92;82.15;96708.81;1806284;78;21116;-85
2020/12/14 07:45:14;;;;;;;16.62;8.88;;;;;;;1.90;82.01;96706.84;1763799;80;21368;-87
2020/12/14 07:47:41;;;;;;;12.30;8.40;;;;;;;1.84;81.79;96709.43;1795005;78;21106;-87
2020/12/14 07:50:11;;;;;;;8.85;7.30;;;;;;;1.76;81.98;96707.91;1774864;79;21093;-87
2020/12/14 07:52:38;;;;;;;7.90;6.00;;;;;;;1.79;82.05;96717.48;1792584;78;21301;-85
2020/12/14 07:55:06;;;;;;;7.45;6.28;;;;;;;1.82;81.87;96718.17;1791140;78;21329;-85
2020/12/14 07:57:41;;;;;;;7.78;5.83;;;;;;;1.75;81.46;96714.79;1812718;79;21113;-85
2020/12/14 08:00:16;;;;;;;10.65;6.95;;;;;;;1.75;81.83;96713.97;1814464;79;21095;-86
2020/12/14 08:02:43;;;;;;;9.18;6.08;;;;;;;1.73;81.92;96712.81;1800159;78;21106;-86
2020/12/14 08:05:19;;;;;;;9.80;7.28;;;;;;;1.74;81.96;96717.01;1781945;79;21114;-85
2020/12/14 08:08:03;;;;;;;9.40;6.85;;;;;;;1.71;81.84;96709.56;1768937;80;21913;-86
2020/12/14 08:10:37;;;;;;;6.70;6.00;;;;;;;1.70;81.90;96710.50;1778705;80;21102;-86
2020/12/14 08:13:10;;;;;;;6.65;5.90;;;;;;;1.73;81.68;96710.25;1765723;80;21293;-86
2020/12/14 08:15:38;;;;;;;9.13;6.90;;;;;;;1.74;81.40;96713.16;1757089;80;21102;-87
2020/12/14 08:18:11;;;;;;;7.92;6.72;;;;;;;1.77;81.46;96715.48;1770557;79;21138;-87
2020/12/14 08:20:42;;;;;;;9.10;7.62;;;;;;;1.75;81.44;96712.70;1780381;80;21120;-88
2020/12/14 08:23:21;;;;;;;9.80;6.95;;;;;;;1.71;81.39;96712.12;1773366;79;21271;-88
2020/12/14 08:25:49;;;;;;;9.85;7.33;;;;;;;1.73;81.61;96710.72;1761116;80;21252;-87
2020/12/14 08:28:16;;;;;;;8.63;6.47;;;;;;;1.75;81.60;96708.38;1772457;80;21122;-87
2020/12/14 08:30:42;;;;;;;9.88;8.00;;;;;;;1.84;81.68;96715.02;1778838;79;21340;-87
2020/12/14 08:33:14;;;;;;;12.03;10.53;;;;;;;1.92;81.55;96713.94;1772508;79;21224;-88
2020/12/14 08:35:57;;;;;;;10.18;8.93;;;;;;;1.93;81.44;96711.26;1820698;77;22479;-86
2020/12/14 08:38:25;;;;;;;12.15;10.15;;;;;;;1.91;81.46;96722.56;1812896;78;21397;-87
2020/12/14 08:41:01;;;;;;;19.30;17.27;;;;;;;1.94;81.61;96724.88;1823278;78;21125;-85
2020/12/14 08:43:27;;;;;;;11.15;9.20;;;;;;;1.96;81.49;96730.27;1810114;78;21470;-85
2020/12/14 08:46:08;;;;;;;10.78;8.38;;;;;;;1.99;81.39;96731.77;1813504;78;21123;-85
2020/12/14 08:48:53;;;;;;;11.28;8.28;;;;;;;2.01;81.05;96732.45;1814754;78;21274;-86
2020/12/14 08:51:27;;;;;;;12.18;8.70;;;;;;;2.04;81.20;96727.09;1819370;78;21129;-86
2020/12/14 08:54:17;;;;;;;8.43;6.65;;;;;;;2.13;81.32;96719.97;1815075;77;22946;-87
2020/12/14 08:56:44;;;;;;;10.88;7.60;;;;;;;2.07;80.68;96726.84;1805290;78;21132;-85
2020/12/14 08:59:17;;;;;;;9.20;6.95;;;;;;;2.03;80.96;96722.90;1809634;78;21352;-86
2020/12/14 09:02:02;;;;;;;11.78;8.10;;;;;;;2.06;81.14;96727.77;1806726;78;21074;-86
2020/12/14 09:04:31;;;;;;;10.68;8.70;;;;;;;2.16;81.29;96724.84;1778643;78;21141;-86
2020/12/14 09:07:00;;;;;;;8.13;6.20;;;;;;;2.25;81.17;96718.16;1819226;78;21311;-85
2020/12/14 09:09:35;;;;;;;9.58;7.30;;;;;;;2.22;80.77;96716.66;1808704;78;21109;-86
2020/12/14 09:12:03;;;;;;;9.23;6.65;;;;;;;2.25;80.66;96712.56;1789420;79;22057;-85
2020/12/14 09:14:31;;;;;;;10.43;6.83;;;;;;;2.21;80.39;96711.66;1726862;81;21320;-86
2020/12/14 09:17:03;;;;;;;10.68;7.40;;;;;;;2.21;80.86;96716.31;1770313;81;21235;-86
2020/12/14 09:19:53;;;;;;;9.47;7.93;;;;;;;2.31;80.96;96710.00;1819723;76;38512;-88
2020/12/14 09:22:25;;;;;;;7.47;5.78;;;;;;;2.38;80.64;96714.50;1844644;77;21077;-87
2020/12/14 09:24:54;;;;;;;10.23;7.25;;;;;;;2.40;79.35;96707.97;1841301;77;21101;-87
2020/12/14 09:27:25;;;;;;;9.43;6.70;;;;;;;2.36;79.72;96709.16;1846712;77;21594;-88
2020/12/14 09:29:54;;;;;;;10.63;7.47;;;;;;;2.36;79.78;96702.74;1798025;77;21101;-84
2020/12/14 09:32:21;;;;;;;9.65;6.92;;;;;;;2.39;79.87;96703.77;1851861;77;21075;-86
2020/12/14 09:34:47;;;;;;;8.45;6.53;;;;;;;2.40;80.04;96693.86;1843826;77;21403;-86
2020/12/14 09:37:14;;;;;;;8.15;6.70;;;;;;;2.39;79.86;96699.92;1838453;77;21109;-85
2020/12/14 09:39:41;;;;;;;9.85;7.35;;;;;;;2.38;79.73;96696.55;1858047;77;21089;-85
2020/12/14 09:42:07;;;;;;;10.28;6.92;;;;;;;2.39;79.58;96690.48;1860659;77;21101;-86
2020/12/14 09:44:36;;;;;;;8.25;6.95;;;;;;;2.40;79.67;96688.73;1849544;77;21260;-87
2020/12/14 09:47:04;;;;;;;8.75;7.33;;;;;;;2.44;79.63;96686.72;1827542;77;21123;-86
2020/12/14 09:49:30;;;;;;;9.80;7.22;;;;;;;2.44;79.78;96688.01;1848170;77;21397;-86
2020/12/14 09:51:56;;;;;;;9.25;7.12;;;;;;;2.43;79.85;96684.63;1850105;76;21300;-86
2020/12/14 09:54:23;;;;;;;9.33;6.22;;;;;;;2.47;79.88;96680.91;1849507;77;21120;-87
2020/12/14 09:56:52;;;;;;;9.93;8.05;;;;;;;2.48;79.62;96684.28;1857706;77;21308;-87
2020/12/14 09:59:19;;;;;;;8.20;6.47;;;;;;;2.47;79.56;96669.36;1856849;77;21102;-86
2020/12/14 10:01:45;;;;;;;9.33;7.45;;;;;;;2.52;79.51;96671.55;1821996;77;21097;-87
2020/12/14 10:04:13;;;;;;;8.43;6.05;;;;;;;2.57;79.28;96671.50;1855081;77;21348;-86
2020/12/14 10:06:40;;;;;;;8.35;6.20;;;;;;;2.64;79.20;96674.40;1859124;76;21260;-86
2020/12/14 10:09:06;;;;;;;8.45;6.47;;;;;;;2.69;78.92;96674.36;1841994;76;21110;-87
2020/12/14 10:11:33;;;;;;;7.58;5.55;;;;;;;2.67;78.86;96677.99;1840808;77;21146;-86
2020/12/14 10:14:02;;;;;;;8.93;6.45;;;;;;;2.67;79.25;96680.09;1841215;76;22039;-85
2020/12/14 10:16:28;;;;;;;8.63;7.62;;;;;;;2.69;79.47;96674.36;1829123;76;21115;-86
2020/12/14 10:18:54;;;;;;;9.60;6.37;;;;;;;2.69;79.22;96673.55;1835881;77;21114;-86
2020/12/14 10:21:20;;;;;;;8.68;6.15;;;;;;;2.70;79.19;96678.55;1840280;77;21093;-87
2020/12/14 10:23:46;;;;;;;8.10;6.70;;;;;;;2.76;78.93;96668.70;1837145;77;21097;-84
2020/12/14 10:26:13;;;;;;;7.53;6.30;;;;;;;2.81;79.10;96666.59;1848187;77;21120;-86
2020/12/14 10:28:40;;;;;;;8.45;6.83;;;;;;;2.85;78.94;96671.81;1847050;77;21066;-88
2020/12/14 10:31:07;;;;;;;10.45;6.85;;;;;;;2.86;78.80;96674.25;1856412;77;21534;-89
2020/12/14 10:33:34;;;;;;;8.55;6.95;;;;;;;2.89;78.82;96670.61;1849703;77;21101;-88
2020/12/14 10:36:11;;;;;;;9.33;6.58;;;;;;;2.90;78.74;96671.77;1842560;77;21067;-87
2020/12/14 10:38:37;;;;;;;9.23;7.37;;;;;;;2.92;78.90;96678.05;1842497;77;21225;-87
2020/12/14 10:41:03;;;;;;;11.15;6.97;;;;;;;2.95;79.00;96680.39;1794991;77;21121;-86
2020/12/14 10:43:30;;;;;;;8.98;6.50;;;;;;;3.00;79.18;96676.97;1843224;77;21086;-87
2020/12/14 10:45:56;;;;;;;9.10;6.58;;;;;;;3.03;78.79;96677.98;1845776;77;21068;-86
2020/12/14 10:48:23;;;;;;;7.90;6.37;;;;;;;3.05;78.52;96679.95;1831742;77;21448;-86
2020/12/14 10:50:49;;;;;;;8.20;6.33;;;;;;;3.08;78.30;96677.59;1825401;77;21340;-86
2020/12/14 10:53:18;;;;;;;7.75;5.75;;;;;;;3.09;78.36;96672.80;1836317;77;21432;-86
2020/12/14 10:55:44;;;;;;;8.85;6.58;;;;;;;3.08;78.43;96669.89;1836163;77;21265;-86
2020/12/14 10:58:10;;;;;;;8.00;6.33;;;;;;;3.07;78.42;96676.78;1831432;77;21090;-87
2020/12/14 11:00:37;;;;;;;8.35;6.40;;;;;;;3.07;78.43;96665.70;1831143;77;21061;-86
2020/12/14 11:03:03;;;;;;;8.55;6.92;;;;;;;3.04;78.68;96655.69;1838213;77;21094;-85
2020/12/14 11:05:29;;;;;;;10.03;6.97;;;;;;;3.11;78.70;96656.82;1830544;77;21117;-85
2020/12/14 11:07:56;;;;;;;8.58;6.58;;;;;;;3.13;78.56;96649.33;1851724;77;21094;-85
2020/12/14 11:10:22;;;;;;;9.88;7.80;;;;;;;3.20;78.56;96647.05;1826832;77;21491;-85
2020/12/14 11:12:48;;;;;;;9.60;6.22;;;;;;;3.25;78.43;96648.30;1828913;77;21303;-86
2020/12/14 11:15:14;;;;;;;8.58;6.72;;;;;;;3.29;78.27;96642.43;1760116;80;21460;-86
2020/12/14 11:17:40;;;;;;;8.15;6.10;;;;;;;3.28;77.81;96639.52;1783368;79;21163;-85
2020/12/14 11:20:08;;;;;;;10.70;7.70;;;;;;;3.30;77.99;96638.44;1778871;80;21146;-86
2020/12/14 11:22:36;;;;;;;8.28;6.80;;;;;;;3.33;78.05;96642.97;1748107;80;21204;-86
2020/12/14 11:25:05;;;;;;;10.53;7.22;;;;;;;3.35;78.16;96641.90;1777671;80;21118;-85
2020/12/14 11:27:31;;;;;;;12.20;8.23;;;;;;;3.33;77.76;96645.55;1771258;80;21256;-86
2020/12/14 11:29:58;;;;;;;11.53;7.17;;;;;;;3.29;78.03;96647.09;1765594;80;21137;-85
2020/12/14 11:32:24;;;;;;;9.55;6.37;;;;;;;3.25;78.12;96648.30;1761604;80;21116;-86
2020/12/14 11:34:50;;;;;;;12.53;8.08;;;;;;;3.27;78.01;96659.25;1765018;80;21116;-86
2020/12/14 11:37:18;;;;;;;13.32;9.58;;;;;;;3.26;78.01;96663.23;1769240;80;21365;-85
2020/12/14 11:39:45;;;;;;;10.75;8.03;;;;;;;3.27;78.10;96658.44;1774694;80;21063;-85
2020/12/14 11:42:12;;;;;;;11.57;7.97;;;;;;;3.33;78.30;96663.05;1788742;80;21111;-85
2020/12/14 11:44:38;;;;;;;13.25;9.03;;;;;;;3.39;78.26;96657.86;1798911;79;21095;-85